sensor_id;sensor_type;location;lat;lon;timestamp;P1;durP1;ratioP1;P2;durP2;ratioP2
27618;SDS011;15039;50.830;4.730;2023-05-07T00:00:24;6.43;;;3.72;;
27618;SDS011;15039;50.830;4.730;2023-05-07T00:02:51;4.07;;;3.40;;
27618;SDS011;15039;50.830;4.730;2023-05-07T00:05:17;7.88;;;3.45;;
27618;SDS011;15039;50.830;4.730;2023-05-07T00:07:44;3.83;;;3.17;;
27618;SDS011;15039;50.830;4.730;2023-05-07T00:10:09;6.70;;;3.38;;
27618;SDS011;15039;50.830;4.730;2023-05-07T00:12:37;7.07;;;3.80;;
27618;SDS011;15039;50.830;4.730;2023-05-07T00:15:03;6.00;;;3.70;;
27618;SDS011;15039;50.830;4.730;2023-05-07T00:17:29;8.27;;;3.55;;
27618;SDS011;15039;50.830;4.730;2023-05-07T00:19:55;5.82;;;3.63;;
27618;SDS011;15039;50.830;4.730;2023-05-07T00:22:21;8.32;;;3.67;;
27618;SDS011;15039;50.830;4.730;2023-05-07T00:24:46;5.45;;;3.78;;
27618;SDS011;15039;50.830;4.730;2023-05-07T00:27:12;4.80;;;3.38;;
27618;SDS011;15039;50.830;4.730;2023-05-07T00:29:38;7.07;;;3.55;;
27618;SDS011;15039;50.830;4.730;2023-05-07T00:32:04;4.13;;;3.22;;
27618;SDS011;15039;50.830;4.730;2023-05-07T00:34:30;4.53;;;3.63;;
27618;SDS011;15039;50.830;4.730;2023-05-07T00:36:55;4.10;;;3.40;;
27618;SDS011;15039;50.830;4.730;2023-05-07T00:39:23;6.18;;;3.33;;
27618;SDS011;15039;50.830;4.730;2023-05-07T00:41:48;6.72;;;3.70;;
27618;SDS011;15039;50.830;4.730;2023-05-07T00:44:14;6.53;;;3.90;;
27618;SDS011;15039;50.830;4.730;2023-05-07T00:46:40;3.92;;;3.38;;
27618;SDS011;15039;50.830;4.730;2023-05-07T00:49:07;6.97;;;4.00;;
27618;SDS011;15039;50.830;4.730;2023-05-07T00:51:33;8.50;;;3.97;;
27618;SDS011;15039;50.830;4.730;2023-05-07T00:53:59;4.43;;;3.75;;
27618;SDS011;15039;50.830;4.730;2023-05-07T00:56:26;4.22;;;3.83;;
27618;SDS011;15039;50.830;4.730;2023-05-07T00:58:52;9.30;;;4.63;;
27618;SDS011;15039;50.830;4.730;2023-05-07T01:01:18;7.80;;;4.43;;
27618;SDS011;15039;50.830;4.730;2023-05-07T01:03:44;6.20;;;4.32;;
27618;SDS011;15039;50.830;4.730;2023-05-07T01:06:10;8.77;;;4.25;;
27618;SDS011;15039;50.830;4.730;2023-05-07T01:08:38;4.53;;;3.78;;
27618;SDS011;15039;50.830;4.730;2023-05-07T01:11:06;5.40;;;4.40;;
27618;SDS011;15039;50.830;4.730;2023-05-07T01:13:37;6.70;;;4.00;;
27618;SDS011;15039;50.830;4.730;2023-05-07T01:16:06;7.85;;;4.25;;
27618;SDS011;15039;50.830;4.730;2023-05-07T01:18:34;6.00;;;4.10;;
27618;SDS011;15039;50.830;4.730;2023-05-07T01:21:00;5.40;;;3.80;;
27618;SDS011;15039;50.830;4.730;2023-05-07T01:23:28;7.30;;;3.92;;
27618;SDS011;15039;50.830;4.730;2023-05-07T01:25:56;6.05;;;4.10;;
27618;SDS011;15039;50.830;4.730;2023-05-07T01:28:23;5.55;;;4.00;;
27618;SDS011;15039;50.830;4.730;2023-05-07T01:30:51;5.90;;;4.78;;
27618;SDS011;15039;50.830;4.730;2023-05-07T01:33:21;5.82;;;4.18;;
27618;SDS011;15039;50.830;4.730;2023-05-07T01:35:48;4.47;;;3.63;;
27618;SDS011;15039;50.830;4.730;2023-05-07T01:38:16;4.50;;;3.72;;
27618;SDS011;15039;50.830;4.730;2023-05-07T01:40:43;5.38;;;3.80;;
27618;SDS011;15039;50.830;4.730;2023-05-07T01:43:09;5.53;;;3.75;;
27618;SDS011;15039;50.830;4.730;2023-05-07T01:45:37;7.75;;;4.60;;
27618;SDS011;15039;50.830;4.730;2023-05-07T01:48:03;4.68;;;4.20;;
27618;SDS011;15039;50.830;4.730;2023-05-07T01:50:30;6.25;;;4.20;;
27618;SDS011;15039;50.830;4.730;2023-05-07T01:52:56;4.80;;;4.30;;
27618;SDS011;15039;50.830;4.730;2023-05-07T01:55:26;6.47;;;5.15;;
27618;SDS011;15039;50.830;4.730;2023-05-07T01:57:52;9.43;;;5.47;;
27618;SDS011;15039;50.830;4.730;2023-05-07T02:00:19;6.65;;;5.35;;
27618;SDS011;15039;50.830;4.730;2023-05-07T02:02:45;9.07;;;5.47;;
27618;SDS011;15039;50.830;4.730;2023-05-07T02:05:10;7.68;;;5.20;;
27618;SDS011;15039;50.830;4.730;2023-05-07T02:07:36;10.02;;;5.18;;
27618;SDS011;15039;50.830;4.730;2023-05-07T02:10:02;8.25;;;5.38;;
27618;SDS011;15039;50.830;4.730;2023-05-07T02:12:28;7.85;;;5.45;;
27618;SDS011;15039;50.830;4.730;2023-05-07T02:14:53;8.45;;;5.00;;
27618;SDS011;15039;50.830;4.730;2023-05-07T02:17:19;5.95;;;5.00;;
27618;SDS011;15039;50.830;4.730;2023-05-07T02:19:46;10.15;;;5.55;;
27618;SDS011;15039;50.830;4.730;2023-05-07T02:22:12;10.35;;;5.18;;
27618;SDS011;15039;50.830;4.730;2023-05-07T02:24:38;6.10;;;4.80;;
27618;SDS011;15039;50.830;4.730;2023-05-07T02:27:04;6.72;;;4.78;;
27618;SDS011;15039;50.830;4.730;2023-05-07T02:29:30;5.68;;;5.10;;
27618;SDS011;15039;50.830;4.730;2023-05-07T02:31:56;5.75;;;4.80;;
27618;SDS011;15039;50.830;4.730;2023-05-07T02:34:21;7.72;;;5.00;;
27618;SDS011;15039;50.830;4.730;2023-05-07T02:36:47;5.60;;;4.90;;
27618;SDS011;15039;50.830;4.730;2023-05-07T02:39:13;7.55;;;5.53;;
27618;SDS011;15039;50.830;4.730;2023-05-07T02:41:38;7.07;;;5.22;;
27618;SDS011;15039;50.830;4.730;2023-05-07T02:44:04;7.55;;;5.07;;
27618;SDS011;15039;50.830;4.730;2023-05-07T02:46:30;6.72;;;5.60;;
27618;SDS011;15039;50.830;4.730;2023-05-07T02:48:56;7.80;;;5.78;;
27618;SDS011;15039;50.830;4.730;2023-05-07T02:51:22;5.90;;;5.25;;
27618;SDS011;15039;50.830;4.730;2023-05-07T02:53:48;7.25;;;5.70;;
27618;SDS011;15039;50.830;4.730;2023-05-07T02:56:14;6.88;;;5.45;;
27618;SDS011;15039;50.830;4.730;2023-05-07T02:58:40;7.15;;;5.32;;
27618;SDS011;15039;50.830;4.730;2023-05-07T03:01:07;6.63;;;5.82;;
27618;SDS011;15039;50.830;4.730;2023-05-07T03:03:33;6.38;;;5.80;;
27618;SDS011;15039;50.830;4.730;2023-05-07T03:05:59;7.30;;;6.20;;
27618;SDS011;15039;50.830;4.730;2023-05-07T03:08:25;9.60;;;7.00;;
27618;SDS011;15039;50.830;4.730;2023-05-07T03:10:50;10.43;;;7.28;;
27618;SDS011;15039;50.830;4.730;2023-05-07T03:13:16;7.70;;;6.90;;
27618;SDS011;15039;50.830;4.730;2023-05-07T03:15:42;10.98;;;6.45;;
27618;SDS011;15039;50.830;4.730;2023-05-07T03:18:08;8.43;;;7.25;;
27618;SDS011;15039;50.830;4.730;2023-05-07T03:20:33;8.45;;;7.53;;
27618;SDS011;15039;50.830;4.730;2023-05-07T03:23:01;9.20;;;6.95;;
27618;SDS011;15039;50.830;4.730;2023-05-07T03:25:27;11.45;;;7.63;;
27618;SDS011;15039;50.830;4.730;2023-05-07T03:27:53;10.52;;;7.20;;
27618;SDS011;15039;50.830;4.730;2023-05-07T03:30:18;12.30;;;6.75;;
27618;SDS011;15039;50.830;4.730;2023-05-07T03:32:45;8.27;;;6.80;;
27618;SDS011;15039;50.830;4.730;2023-05-07T03:35:10;8.80;;;6.85;;
27618;SDS011;15039;50.830;4.730;2023-05-07T03:37:37;10.45;;;7.25;;
27618;SDS011;15039;50.830;4.730;2023-05-07T03:40:03;8.50;;;6.15;;
27618;SDS011;15039;50.830;4.730;2023-05-07T03:42:29;9.00;;;6.80;;
27618;SDS011;15039;50.830;4.730;2023-05-07T03:44:55;11.88;;;7.30;;
27618;SDS011;15039;50.830;4.730;2023-05-07T03:47:21;8.02;;;6.88;;
27618;SDS011;15039;50.830;4.730;2023-05-07T03:49:46;10.13;;;6.70;;
27618;SDS011;15039;50.830;4.730;2023-05-07T03:52:13;8.43;;;6.18;;
27618;SDS011;15039;50.830;4.730;2023-05-07T03:54:39;8.00;;;7.00;;
27618;SDS011;15039;50.830;4.730;2023-05-07T03:57:05;8.68;;;6.72;;
27618;SDS011;15039;50.830;4.730;2023-05-07T03:59:31;9.20;;;6.70;;
27618;SDS011;15039;50.830;4.730;2023-05-07T04:01:56;8.48;;;6.57;;
27618;SDS011;15039;50.830;4.730;2023-05-07T04:04:22;8.55;;;6.72;;
27618;SDS011;15039;50.830;4.730;2023-05-07T04:06:48;9.80;;;7.07;;
27618;SDS011;15039;50.830;4.730;2023-05-07T04:09:14;9.35;;;5.57;;
27618;SDS011;15039;50.830;4.730;2023-05-07T04:11:40;9.52;;;5.25;;
27618;SDS011;15039;50.830;4.730;2023-05-07T04:14:05;6.22;;;4.90;;
27618;SDS011;15039;50.830;4.730;2023-05-07T04:16:31;5.80;;;4.82;;
27618;SDS011;15039;50.830;4.730;2023-05-07T04:18:57;8.77;;;5.40;;
27618;SDS011;15039;50.830;4.730;2023-05-07T04:21:23;9.20;;;4.65;;
27618;SDS011;15039;50.830;4.730;2023-05-07T04:23:48;6.05;;;4.80;;
27618;SDS011;15039;50.830;4.730;2023-05-07T04:26:15;9.15;;;5.13;;
27618;SDS011;15039;50.830;4.730;2023-05-07T04:28:41;8.88;;;5.97;;
27618;SDS011;15039;50.830;4.730;2023-05-07T04:31:08;8.88;;;6.35;;
27618;SDS011;15039;50.830;4.730;2023-05-07T04:33:33;6.93;;;6.00;;
27618;SDS011;15039;50.830;4.730;2023-05-07T04:36:02;7.57;;;5.97;;
27618;SDS011;15039;50.830;4.730;2023-05-07T04:40:55;9.73;;;6.05;;
27618;SDS011;15039;50.830;4.730;2023-05-07T04:43:22;9.05;;;6.65;;
27618;SDS011;15039;50.830;4.730;2023-05-07T04:45:47;7.97;;;6.82;;
27618;SDS011;15039;50.830;4.730;2023-05-07T04:48:15;10.95;;;6.95;;
27618;SDS011;15039;50.830;4.730;2023-05-07T04:50:41;9.57;;;7.00;;
27618;SDS011;15039;50.830;4.730;2023-05-07T04:53:07;9.05;;;7.38;;
27618;SDS011;15039;50.830;4.730;2023-05-07T04:55:32;9.30;;;7.13;;
27618;SDS011;15039;50.830;4.730;2023-05-07T04:57:58;10.85;;;7.18;;
27618;SDS011;15039;50.830;4.730;2023-05-07T05:00:26;11.63;;;6.80;;
27618;SDS011;15039;50.830;4.730;2023-05-07T05:02:51;10.10;;;7.00;;
27618;SDS011;15039;50.830;4.730;2023-05-07T05:05:18;7.68;;;5.90;;
27618;SDS011;15039;50.830;4.730;2023-05-07T05:07:43;7.15;;;6.40;;
27618;SDS011;15039;50.830;4.730;2023-05-07T05:10:09;8.85;;;6.28;;
27618;SDS011;15039;50.830;4.730;2023-05-07T05:12:35;6.10;;;5.50;;
27618;SDS011;15039;50.830;4.730;2023-05-07T05:15:00;8.63;;;6.05;;
27618;SDS011;15039;50.830;4.730;2023-05-07T05:17:28;9.18;;;6.40;;
27618;SDS011;15039;50.830;4.730;2023-05-07T05:19:54;7.65;;;5.47;;
27618;SDS011;15039;50.830;4.730;2023-05-07T05:22:21;9.88;;;5.35;;
27618;SDS011;15039;50.830;4.730;2023-05-07T05:24:46;7.65;;;5.32;;
27618;SDS011;15039;50.830;4.730;2023-05-07T05:27:12;8.20;;;6.05;;
27618;SDS011;15039;50.830;4.730;2023-05-07T05:29:38;7.47;;;6.05;;
27618;SDS011;15039;50.830;4.730;2023-05-07T05:32:05;7.10;;;5.80;;
27618;SDS011;15039;50.830;4.730;2023-05-07T05:34:31;8.48;;;5.78;;
27618;SDS011;15039;50.830;4.730;2023-05-07T05:36:58;7.22;;;5.45;;
27618;SDS011;15039;50.830;4.730;2023-05-07T05:39:24;7.90;;;5.43;;
27618;SDS011;15039;50.830;4.730;2023-05-07T05:41:50;8.35;;;5.43;;
27618;SDS011;15039;50.830;4.730;2023-05-07T05:44:16;8.40;;;5.40;;
27618;SDS011;15039;50.830;4.730;2023-05-07T05:46:41;6.15;;;5.00;;
27618;SDS011;15039;50.830;4.730;2023-05-07T05:49:07;6.15;;;4.50;;
27618;SDS011;15039;50.830;4.730;2023-05-07T05:51:35;7.25;;;4.40;;
27618;SDS011;15039;50.830;4.730;2023-05-07T05:54:03;6.78;;;4.40;;
27618;SDS011;15039;50.830;4.730;2023-05-07T05:56:30;6.22;;;3.83;;
27618;SDS011;15039;50.830;4.730;2023-05-07T05:58:55;6.65;;;4.13;;
27618;SDS011;15039;50.830;4.730;2023-05-07T06:01:21;10.68;;;4.15;;
27618;SDS011;15039;50.830;4.730;2023-05-07T06:03:47;8.73;;;3.90;;
27618;SDS011;15039;50.830;4.730;2023-05-07T06:06:12;8.80;;;4.07;;
27618;SDS011;15039;50.830;4.730;2023-05-07T06:08:39;5.85;;;3.53;;
27618;SDS011;15039;50.830;4.730;2023-05-07T06:11:05;5.40;;;3.28;;
27618;SDS011;15039;50.830;4.730;2023-05-07T06:13:30;4.72;;;2.70;;
27618;SDS011;15039;50.830;4.730;2023-05-07T06:15:56;5.07;;;3.20;;
27618;SDS011;15039;50.830;4.730;2023-05-07T06:18:22;8.20;;;3.35;;
27618;SDS011;15039;50.830;4.730;2023-05-07T06:20:47;5.50;;;2.83;;
27618;SDS011;15039;50.830;4.730;2023-05-07T06:23:14;4.88;;;2.83;;
27618;SDS011;15039;50.830;4.730;2023-05-07T06:25:39;5.30;;;2.88;;
27618;SDS011;15039;50.830;4.730;2023-05-07T06:28:06;6.05;;;3.35;;
27618;SDS011;15039;50.830;4.730;2023-05-07T06:30:34;5.18;;;2.90;;
27618;SDS011;15039;50.830;4.730;2023-05-07T06:33:00;7.63;;;2.92;;
27618;SDS011;15039;50.830;4.730;2023-05-07T06:35:25;5.03;;;2.70;;
27618;SDS011;15039;50.830;4.730;2023-05-07T06:37:51;6.78;;;3.00;;
27618;SDS011;15039;50.830;4.730;2023-05-07T06:40:17;5.25;;;3.20;;
27618;SDS011;15039;50.830;4.730;2023-05-07T06:42:44;7.43;;;3.20;;
27618;SDS011;15039;50.830;4.730;2023-05-07T06:45:10;7.05;;;3.70;;
27618;SDS011;15039;50.830;4.730;2023-05-07T06:47:35;5.43;;;2.78;;
27618;SDS011;15039;50.830;4.730;2023-05-07T06:50:01;4.13;;;2.83;;
27618;SDS011;15039;50.830;4.730;2023-05-07T06:52:27;3.42;;;2.63;;
27618;SDS011;15039;50.830;4.730;2023-05-07T06:54:52;6.28;;;2.72;;
27618;SDS011;15039;50.830;4.730;2023-05-07T06:57:19;4.20;;;2.90;;
27618;SDS011;15039;50.830;4.730;2023-05-07T06:59:45;6.25;;;2.60;;
27618;SDS011;15039;50.830;4.730;2023-05-07T07:02:13;3.85;;;2.65;;
27618;SDS011;15039;50.830;4.730;2023-05-07T07:04:50;7.97;;;3.30;;
27618;SDS011;15039;50.830;4.730;2023-05-07T07:07:52;6.68;;;3.13;;
27618;SDS011;15039;50.830;4.730;2023-05-07T07:10:19;4.97;;;2.38;;
27618;SDS011;15039;50.830;4.730;2023-05-07T07:12:51;8.35;;;3.30;;
27618;SDS011;15039;50.830;4.730;2023-05-07T07:15:21;5.55;;;2.88;;
27618;SDS011;15039;50.830;4.730;2023-05-07T07:17:47;4.18;;;2.40;;
27618;SDS011;15039;50.830;4.730;2023-05-07T07:20:16;6.13;;;2.42;;
27618;SDS011;15039;50.830;4.730;2023-05-07T07:22:42;5.45;;;2.42;;
27618;SDS011;15039;50.830;4.730;2023-05-07T07:25:08;5.57;;;2.10;;
27618;SDS011;15039;50.830;4.730;2023-05-07T07:27:34;5.82;;;2.60;;
27618;SDS011;15039;50.830;4.730;2023-05-07T07:30:01;2.50;;;1.73;;
27618;SDS011;15039;50.830;4.730;2023-05-07T07:32:26;5.20;;;2.00;;
27618;SDS011;15039;50.830;4.730;2023-05-07T07:34:52;4.75;;;2.20;;
27618;SDS011;15039;50.830;4.730;2023-05-07T07:37:18;5.40;;;2.33;;
27618;SDS011;15039;50.830;4.730;2023-05-07T07:39:45;5.78;;;2.53;;
27618;SDS011;15039;50.830;4.730;2023-05-07T07:42:11;4.80;;;2.92;;
27618;SDS011;15039;50.830;4.730;2023-05-07T07:44:36;5.03;;;2.50;;
27618;SDS011;15039;50.830;4.730;2023-05-07T07:47:04;4.82;;;2.10;;
27618;SDS011;15039;50.830;4.730;2023-05-07T07:49:30;6.50;;;2.50;;
27618;SDS011;15039;50.830;4.730;2023-05-07T07:51:56;4.55;;;2.10;;
27618;SDS011;15039;50.830;4.730;2023-05-07T07:54:25;5.67;;;2.00;;
27618;SDS011;15039;50.830;4.730;2023-05-07T07:56:51;4.57;;;2.28;;
27618;SDS011;15039;50.830;4.730;2023-05-07T07:59:18;3.90;;;1.90;;
27618;SDS011;15039;50.830;4.730;2023-05-07T08:01:45;2.85;;;1.70;;
27618;SDS011;15039;50.830;4.730;2023-05-07T08:04:15;4.57;;;1.88;;
27618;SDS011;15039;50.830;4.730;2023-05-07T08:06:41;3.42;;;1.90;;
27618;SDS011;15039;50.830;4.730;2023-05-07T08:09:10;3.30;;;1.60;;
27618;SDS011;15039;50.830;4.730;2023-05-07T08:11:39;3.65;;;1.50;;
27618;SDS011;15039;50.830;4.730;2023-05-07T08:14:05;4.90;;;2.03;;
27618;SDS011;15039;50.830;4.730;2023-05-07T08:16:30;4.80;;;1.70;;
27618;SDS011;15039;50.830;4.730;2023-05-07T08:18:59;6.15;;;1.90;;
27618;SDS011;15039;50.830;4.730;2023-05-07T08:24:30;3.40;;;1.60;;
27618;SDS011;15039;50.830;4.730;2023-05-07T08:26:57;4.35;;;1.90;;
27618;SDS011;15039;50.830;4.730;2023-05-07T08:29:26;2.45;;;1.58;;
27618;SDS011;15039;50.830;4.730;2023-05-07T08:31:56;6.15;;;2.08;;
27618;SDS011;15039;50.830;4.730;2023-05-07T08:34:22;3.83;;;2.33;;
27618;SDS011;15039;50.830;4.730;2023-05-07T08:36:48;6.25;;;2.05;;
27618;SDS011;15039;50.830;4.730;2023-05-07T08:39:16;4.85;;;1.83;;
27618;SDS011;15039;50.830;4.730;2023-05-07T08:41:45;3.42;;;1.65;;
27618;SDS011;15039;50.830;4.730;2023-05-07T08:44:16;3.13;;;1.83;;
27618;SDS011;15039;50.830;4.730;2023-05-07T08:46:46;1.98;;;1.77;;
27618;SDS011;15039;50.830;4.730;2023-05-07T08:49:14;4.97;;;1.90;;
27618;SDS011;15039;50.830;4.730;2023-05-07T08:51:41;3.00;;;1.67;;
27618;SDS011;15039;50.830;4.730;2023-05-07T08:54:51;5.82;;;2.17;;
27618;SDS011;15039;50.830;4.730;2023-05-07T08:57:17;5.40;;;1.95;;
27618;SDS011;15039;50.830;4.730;2023-05-07T09:00:04;2.83;;;1.73;;
27618;SDS011;15039;50.830;4.730;2023-05-07T09:02:35;4.53;;;1.80;;
27618;SDS011;15039;50.830;4.730;2023-05-07T09:05:18;4.25;;;1.60;;
27618;SDS011;15039;50.830;4.730;2023-05-07T09:07:45;6.93;;;2.30;;
27618;SDS011;15039;50.830;4.730;2023-05-07T09:10:24;3.80;;;1.90;;
27618;SDS011;15039;50.830;4.730;2023-05-07T09:13:06;3.25;;;2.13;;
27618;SDS011;15039;50.830;4.730;2023-05-07T09:15:31;2.88;;;1.90;;
27618;SDS011;15039;50.830;4.730;2023-05-07T09:18:00;3.20;;;2.10;;
27618;SDS011;15039;50.830;4.730;2023-05-07T09:20:26;3.60;;;1.73;;
27618;SDS011;15039;50.830;4.730;2023-05-07T09:22:56;3.25;;;1.98;;
27618;SDS011;15039;50.830;4.730;2023-05-07T09:25:32;4.53;;;2.22;;
27618;SDS011;15039;50.830;4.730;2023-05-07T09:28:06;5.85;;;2.30;;
27618;SDS011;15039;50.830;4.730;2023-05-07T09:30:33;5.20;;;2.42;;
27618;SDS011;15039;50.830;4.730;2023-05-07T09:33:03;3.88;;;1.90;;
27618;SDS011;15039;50.830;4.730;2023-05-07T09:35:29;3.80;;;1.80;;
27618;SDS011;15039;50.830;4.730;2023-05-07T09:37:56;2.80;;;1.83;;
27618;SDS011;15039;50.830;4.730;2023-05-07T09:40:24;4.43;;;2.15;;
27618;SDS011;15039;50.830;4.730;2023-05-07T09:42:52;3.65;;;2.20;;
27618;SDS011;15039;50.830;4.730;2023-05-07T09:45:24;2.63;;;2.20;;
27618;SDS011;15039;50.830;4.730;2023-05-07T09:47:58;5.13;;;2.30;;
27618;SDS011;15039;50.830;4.730;2023-05-07T09:50:29;3.05;;;1.95;;
27618;SDS011;15039;50.830;4.730;2023-05-07T09:52:58;4.05;;;2.05;;
27618;SDS011;15039;50.830;4.730;2023-05-07T09:55:25;3.13;;;2.28;;
27618;SDS011;15039;50.830;4.730;2023-05-07T09:57:52;5.53;;;2.33;;
27618;SDS011;15039;50.830;4.730;2023-05-07T10:00:21;6.22;;;2.30;;
27618;SDS011;15039;50.830;4.730;2023-05-07T10:03:07;4.35;;;1.85;;
27618;SDS011;15039;50.830;4.730;2023-05-07T10:05:37;3.42;;;1.83;;
27618;SDS011;15039;50.830;4.730;2023-05-07T10:08:13;5.15;;;2.25;;
27618;SDS011;15039;50.830;4.730;2023-05-07T10:10:43;4.43;;;2.38;;
27618;SDS011;15039;50.830;4.730;2023-05-07T10:13:11;5.20;;;2.13;;
27618;SDS011;15039;50.830;4.730;2023-05-07T10:15:37;3.30;;;1.85;;
27618;SDS011;15039;50.830;4.730;2023-05-07T10:18:03;6.13;;;2.30;;
27618;SDS011;15039;50.830;4.730;2023-05-07T10:20:31;3.28;;;2.00;;
27618;SDS011;15039;50.830;4.730;2023-05-07T10:22:58;3.45;;;2.03;;
27618;SDS011;15039;50.830;4.730;2023-05-07T10:25:30;4.78;;;2.20;;
27618;SDS011;15039;50.830;4.730;2023-05-07T10:27:59;5.38;;;1.80;;
27618;SDS011;15039;50.830;4.730;2023-05-07T10:33:51;4.40;;;1.73;;
27618;SDS011;15039;50.830;4.730;2023-05-07T10:36:27;5.40;;;2.33;;
27618;SDS011;15039;50.830;4.730;2023-05-07T10:38:53;2.95;;;1.75;;
27618;SDS011;15039;50.830;4.730;2023-05-07T10:41:21;4.93;;;1.67;;
27618;SDS011;15039;50.830;4.730;2023-05-07T10:43:47;3.97;;;1.75;;
27618;SDS011;15039;50.830;4.730;2023-05-07T10:46:16;3.53;;;1.90;;
27618;SDS011;15039;50.830;4.730;2023-05-07T10:51:35;3.25;;;1.70;;
27618;SDS011;15039;50.830;4.730;2023-05-07T10:56:41;4.57;;;2.35;;
27618;SDS011;15039;50.830;4.730;2023-05-07T10:59:31;4.75;;;1.80;;
27618;SDS011;15039;50.830;4.730;2023-05-07T11:04:35;2.35;;;1.55;;
27618;SDS011;15039;50.830;4.730;2023-05-07T11:17:28;2.75;;;1.23;;
27618;SDS011;15039;50.830;4.730;2023-05-07T11:19:57;3.42;;;1.42;;
27618;SDS011;15039;50.830;4.730;2023-05-07T11:22:41;3.65;;;1.33;;
27618;SDS011;15039;50.830;4.730;2023-05-07T11:25:07;2.08;;;1.10;;
27618;SDS011;15039;50.830;4.730;2023-05-07T11:27:32;3.50;;;1.50;;
27618;SDS011;15039;50.830;4.730;2023-05-07T11:29:58;2.72;;;1.15;;
27618;SDS011;15039;50.830;4.730;2023-05-07T11:32:30;3.85;;;1.30;;
27618;SDS011;15039;50.830;4.730;2023-05-07T11:34:57;1.30;;;0.80;;
27618;SDS011;15039;50.830;4.730;2023-05-07T11:41:00;2.70;;;1.08;;
27618;SDS011;15039;50.830;4.730;2023-05-07T11:43:27;2.67;;;0.98;;
27618;SDS011;15039;50.830;4.730;2023-05-07T11:46:06;2.25;;;1.20;;
27618;SDS011;15039;50.830;4.730;2023-05-07T11:48:37;1.23;;;0.98;;
27618;SDS011;15039;50.830;4.730;2023-05-07T11:51:04;1.60;;;1.00;;
27618;SDS011;15039;50.830;4.730;2023-05-07T11:53:35;2.10;;;0.90;;
27618;SDS011;15039;50.830;4.730;2023-05-07T11:56:07;1.75;;;1.17;;
27618;SDS011;15039;50.830;4.730;2023-05-07T11:58:33;2.92;;;1.17;;
27618;SDS011;15039;50.830;4.730;2023-05-07T12:00:59;1.83;;;1.05;;
27618;SDS011;15039;50.830;4.730;2023-05-07T12:03:25;5.18;;;1.30;;
27618;SDS011;15039;50.830;4.730;2023-05-07T12:05:51;1.23;;;1.10;;
27618;SDS011;15039;50.830;4.730;2023-05-07T12:08:17;2.92;;;1.25;;
27618;SDS011;15039;50.830;4.730;2023-05-07T12:10:45;2.20;;;0.98;;
27618;SDS011;15039;50.830;4.730;2023-05-07T12:13:15;2.08;;;1.17;;
27618;SDS011;15039;50.830;4.730;2023-05-07T12:15:54;1.23;;;0.93;;
27618;SDS011;15039;50.830;4.730;2023-05-07T12:18:21;2.00;;;0.90;;
27618;SDS011;15039;50.830;4.730;2023-05-07T12:20:56;5.78;;;0.90;;
27618;SDS011;15039;50.830;4.730;2023-05-07T12:23:27;4.13;;;1.00;;
27618;SDS011;15039;50.830;4.730;2023-05-07T12:25:53;1.63;;;0.90;;
27618;SDS011;15039;50.830;4.730;2023-05-07T12:28:19;3.65;;;1.10;;
27618;SDS011;15039;50.830;4.730;2023-05-07T12:30:46;4.65;;;1.23;;
27618;SDS011;15039;50.830;4.730;2023-05-07T12:33:23;1.73;;;0.95;;
27618;SDS011;15039;50.830;4.730;2023-05-07T12:39:47;1.23;;;0.82;;
27618;SDS011;15039;50.830;4.730;2023-05-07T12:42:47;2.75;;;1.33;;
27618;SDS011;15039;50.830;4.730;2023-05-07T12:45:27;1.15;;;0.90;;
27618;SDS011;15039;50.830;4.730;2023-05-07T12:48:00;1.48;;;0.88;;
27618;SDS011;15039;50.830;4.730;2023-05-07T12:50:34;1.23;;;1.00;;
27618;SDS011;15039;50.830;4.730;2023-05-07T12:53:05;3.80;;;1.10;;
27618;SDS011;15039;50.830;4.730;2023-05-07T12:55:40;5.32;;;1.13;;
27618;SDS011;15039;50.830;4.730;2023-05-07T13:00:43;2.10;;;1.00;;
27618;SDS011;15039;50.830;4.730;2023-05-07T13:03:35;2.38;;;1.17;;
27618;SDS011;15039;50.830;4.730;2023-05-07T13:06:03;1.83;;;0.85;;
27618;SDS011;15039;50.830;4.730;2023-05-07T13:08:49;2.85;;;1.08;;
27618;SDS011;15039;50.830;4.730;2023-05-07T13:20:41;1.10;;;1.00;;
27618;SDS011;15039;50.830;4.730;2023-05-07T13:26:21;2.08;;;1.13;;
27618;SDS011;15039;50.830;4.730;2023-05-07T13:28:49;3.05;;;1.30;;
27618;SDS011;15039;50.830;4.730;2023-05-07T13:31:19;3.22;;;1.23;;
27618;SDS011;15039;50.830;4.730;2023-05-07T13:33:57;2.90;;;1.33;;
27618;SDS011;15039;50.830;4.730;2023-05-07T13:43:00;2.97;;;1.52;;
27618;SDS011;15039;50.830;4.730;2023-05-07T13:48:09;3.92;;;1.65;;
27618;SDS011;15039;50.830;4.730;2023-05-07T13:53:18;2.20;;;1.50;;
27618;SDS011;15039;50.830;4.730;2023-05-07T13:58:14;2.38;;;1.30;;
27618;SDS011;15039;50.830;4.730;2023-05-07T14:00:59;1.58;;;1.10;;
27618;SDS011;15039;50.830;4.730;2023-05-07T14:04:01;1.30;;;1.05;;
27618;SDS011;15039;50.830;4.730;2023-05-07T14:06:30;1.05;;;0.95;;
27618;SDS011;15039;50.830;4.730;2023-05-07T14:08:59;2.58;;;1.20;;
27618;SDS011;15039;50.830;4.730;2023-05-07T14:11:27;1.35;;;1.00;;
27618;SDS011;15039;50.830;4.730;2023-05-07T14:13:52;1.35;;;1.02;;
27618;SDS011;15039;50.830;4.730;2023-05-07T14:16:25;3.60;;;1.20;;
27618;SDS011;15039;50.830;4.730;2023-05-07T14:25:14;2.60;;;1.30;;
27618;SDS011;15039;50.830;4.730;2023-05-07T14:27:50;1.40;;;1.10;;
27618;SDS011;15039;50.830;4.730;2023-05-07T14:30:39;1.63;;;1.00;;
27618;SDS011;15039;50.830;4.730;2023-05-07T14:39:16;2.67;;;1.08;;
27618;SDS011;15039;50.830;4.730;2023-05-07T14:41:47;2.00;;;1.10;;
27618;SDS011;15039;50.830;4.730;2023-05-07T14:44:29;2.03;;;1.33;;
27618;SDS011;15039;50.830;4.730;2023-05-07T14:46:57;2.50;;;1.40;;
27618;SDS011;15039;50.830;4.730;2023-05-07T14:49:27;3.25;;;1.40;;
27618;SDS011;15039;50.830;4.730;2023-05-07T14:54:34;2.92;;;1.30;;
27618;SDS011;15039;50.830;4.730;2023-05-07T14:57:05;3.25;;;1.40;;
27618;SDS011;15039;50.830;4.730;2023-05-07T15:03:09;1.67;;;1.15;;
27618;SDS011;15039;50.830;4.730;2023-05-07T15:05:41;3.50;;;1.45;;
27618;SDS011;15039;50.830;4.730;2023-05-07T15:08:17;3.15;;;1.30;;
27618;SDS011;15039;50.830;4.730;2023-05-07T15:14:08;4.53;;;1.67;;
27618;SDS011;15039;50.830;4.730;2023-05-07T15:17:25;2.40;;;1.48;;
27618;SDS011;15039;50.830;4.730;2023-05-07T15:32:28;3.47;;;1.67;;
27618;SDS011;15039;50.830;4.730;2023-05-07T15:35:09;2.50;;;1.23;;
27618;SDS011;15039;50.830;4.730;2023-05-07T15:37:36;1.75;;;1.45;;
27618;SDS011;15039;50.830;4.730;2023-05-07T15:48:55;2.75;;;1.90;;
27618;SDS011;15039;50.830;4.730;2023-05-07T16:03:10;2.30;;;1.25;;
27618;SDS011;15039;50.830;4.730;2023-05-07T16:11:49;3.25;;;1.33;;
27618;SDS011;15039;50.830;4.730;2023-05-07T16:14:16;1.80;;;1.48;;
27618;SDS011;15039;50.830;4.730;2023-05-07T16:21:00;2.50;;;1.48;;
27618;SDS011;15039;50.830;4.730;2023-05-07T16:23:37;2.22;;;1.60;;
27618;SDS011;15039;50.830;4.730;2023-05-07T16:26:06;2.67;;;1.58;;
27618;SDS011;15039;50.830;4.730;2023-05-07T16:37:15;3.30;;;1.50;;
27618;SDS011;15039;50.830;4.730;2023-05-07T16:42:06;2.22;;;1.70;;
27618;SDS011;15039;50.830;4.730;2023-05-07T16:44:33;4.03;;;2.53;;
27618;SDS011;15039;50.830;4.730;2023-05-07T16:46:59;2.13;;;1.83;;
27618;SDS011;15039;50.830;4.730;2023-05-07T16:49:28;2.55;;;1.70;;
27618;SDS011;15039;50.830;4.730;2023-05-07T16:51:53;3.08;;;1.83;;
27618;SDS011;15039;50.830;4.730;2023-05-07T16:54:23;3.00;;;2.28;;
27618;SDS011;15039;50.830;4.730;2023-05-07T16:57:02;5.30;;;2.20;;
27618;SDS011;15039;50.830;4.730;2023-05-07T17:02:08;5.90;;;2.00;;
27618;SDS011;15039;50.830;4.730;2023-05-07T17:04:36;3.20;;;2.15;;
27618;SDS011;15039;50.830;4.730;2023-05-07T17:12:58;2.40;;;2.20;;
27618;SDS011;15039;50.830;4.730;2023-05-07T17:16:06;2.35;;;2.15;;
27618;SDS011;15039;50.830;4.730;2023-05-07T17:22:04;2.45;;;2.25;;
27618;SDS011;15039;50.830;4.730;2023-05-07T17:27:24;3.08;;;2.70;;
27618;SDS011;15039;50.830;4.730;2023-05-07T17:30:18;3.08;;;2.78;;
27618;SDS011;15039;50.830;4.730;2023-05-07T17:32:45;4.43;;;2.70;;